Aviation Digital Data Service (ADDS)

Output produced by TAFs form (0532 UTC 20 September 2017)
found at http://www.aviationweather.gov/adds/tafs/
 
METAR text: EGLL 200520Z VRB03KT 8000 NSC 09/09 Q1020
Conditions at: EGLL (LONDON/HEATHROW , GB) observed 0520 UTC 20 September 2017
Temperature: 9.0°C (48°F)
Dewpoint: 9.0°C (48°F) [RH = 100%]
Pressure (altimeter): 30.12 inches Hg (1020.0 mb)
Winds: variable direction winds at 3 MPH (3 knots; 1.6 m/s)
Visibility: 5 miles (8 km)
Ceiling: at least 12,000 feet AGL
Clouds: sky clear below 12,000 feet AGL
Weather: no significant weather observed at this time

Forecast for: EGLL (LONDON/HEATHROW , GB)
Text: TAF EGLL 200503Z 2006/2112 21005KT 9999 SCT045
Forecast period: 0600 UTC 20 September 2017 to 1200 UTC 21 September 2017
Forecast type: FROM: standard forecast or significant change
Winds: from the SSW (210 degrees) at 6 MPH (5 knots; 2.6 m/s)
Visibility: 6 or more miles (10+ km)
Clouds: scattered clouds at 4500 feet AGL
Weather: no significant weather forecast for this period
Text: TEMPO 2006/2008 7000
Forecast period: 0600 to 0800 UTC 20 September 2017
Forecast type: TEMPORARY: The following changes expected for less than half the time period
Visibility: 4 miles (7 km)
Weather: no significant weather forecast for this period
Text: PROB40
Forecast period: 0600 to 0700 UTC 20 September 2017
Forecast type: TEMPORARY: The following changes expected for less than half the time period
Visibility: 2.17 miles (3.49 km)
Weather: BR  (mist)
Text: TEMPO 2006/2007 3500 BR
Forecast period: 0800 to 1000 UTC 20 September 2017
Forecast type: TEMPORARY: The following changes expected for less than half the time period
Ceiling: 1200 feet AGL
Clouds: broken clouds at 1200 feet AGL
Weather: no significant weather forecast for this period

METAR text: ZBAA 200500Z 15003MPS 070V180 CAVOK 27/05 Q1014 NOSIG
Conditions at: ZBAA (BEIJING/PEKING , CN) observed 0500 UTC 20 September 2017
Temperature: 27.0°C (81°F)
Dewpoint: 5.0°C (41°F) [RH = 24%]
Pressure (altimeter): 29.94 inches Hg (1014.0 mb)
Winds: from the SSE (150 degrees) at 7 MPH (6 knots; 3.1 m/s)
Visibility: 6 or more miles (10+ km)
Ceiling: ceiling and visibility are OK
Clouds: unknown
Weather: no significant weather observed at this time

Forecast for: ZBAA (BEIJING/PEKING , CN)
Text: TAF ZBAA 200330Z 2006/2106 18004MPS CAVOK TX30/2007Z TN10/2021Z
Forecast period: 0600 UTC 20 September 2017 to 0600 UTC 21 September 2017
Forecast type: FROM: standard forecast or significant change
Winds: from the S (180 degrees) at 9 MPH (8 knots; 4.2 m/s)
Visibility: 6 or more miles (10+ km)
Clouds: not forecast
Weather: no significant weather forecast for this period

METAR text: ZUUU 200500Z VRB01MPS CAVOK 28/20 Q1015 NOSIG
Conditions at: ZUUU (CHENGDU , CN) observed 0500 UTC 20 September 2017
Temperature: 28.0°C (82°F)
Dewpoint: 20.0°C (68°F) [RH = 62%]
Pressure (altimeter): 29.97 inches Hg (1015.0 mb)
Winds: variable direction winds at 2 MPH (2 knots; 1.0 m/s)
Visibility: 6 or more miles (10+ km)
Ceiling: ceiling and visibility are OK
Clouds: unknown
Weather: no significant weather observed at this time

Forecast for: ZUUU (CHENGDU , CN)
Text: TAF ZUUU 200205Z 2006/2106 20003MPS 5000 BR SCT050 TX28/2007Z TN23/2100Z
Forecast period: 0600 UTC 20 September 2017 to 0600 UTC 21 September 2017
Forecast type: FROM: standard forecast or significant change
Winds: from the SSW (200 degrees) at 7 MPH (6 knots; 3.1 m/s)
Visibility: 3 miles (5 km)
Clouds: scattered clouds at 5000 feet AGL
Weather: BR  (mist)

METAR text: ZLXY 200500Z 00000MPS CAVOK 27/18 Q1014 NOSIG
Conditions at: ZLXY (XIANYANG , CN) observed 0500 UTC 20 September 2017
Temperature: 27.0°C (81°F)
Dewpoint: 18.0°C (64°F) [RH = 58%]
Pressure (altimeter): 29.94 inches Hg (1014.0 mb)
Winds: calm
Visibility: 6 or more miles (10+ km)
Ceiling: ceiling and visibility are OK
Clouds: unknown
Weather: no significant weather observed at this time

Forecast for: ZLXY (XIANYANG , CN)
Text: TAF ZLXY 200303Z 2006/2106 06003MPS 6000 NSC TX30/2008Z TN17/2022Z
Forecast period: 0600 UTC 20 September 2017 to 0600 UTC 21 September 2017
Forecast type: FROM: standard forecast or significant change
Winds: from the ENE (60 degrees) at 7 MPH (6 knots; 3.1 m/s)
Visibility: 4 miles (6 km)
Clouds: not forecast
Weather: no significant weather forecast for this period

METAR text: ZSPD 200500Z 04006MPS 010V070 CAVOK 23/18 Q1012 NOSIG
Conditions at: ZSPD (SHANGHAI/PUDONG , CN) observed 0500 UTC 20 September 2017
Temperature: 23.0°C (73°F)
Dewpoint: 18.0°C (64°F) [RH = 73%]
Pressure (altimeter): 29.88 inches Hg (1012.0 mb)
Winds: from the NE (40 degrees) at 14 MPH (12 knots; 6.2 m/s)
Visibility: 6 or more miles (10+ km)
Ceiling: ceiling and visibility are OK
Clouds: unknown
Weather: no significant weather observed at this time

Forecast for: ZSPD (SHANGHAI/PUDONG , CN)
Text: TAF ZSPD 200321Z 2006/2106 07006MPS 6000 BKN013 TX23/2006Z TN20/2021Z
Forecast period: 0600 UTC 20 September 2017 to 0600 UTC 21 September 2017
Forecast type: FROM: standard forecast or significant change
Winds: from the ENE (70 degrees) at 14 MPH (12 knots; 6.2 m/s)
Visibility: 4 miles (6 km)
Ceiling: 1300 feet AGL
Clouds: broken clouds at 1300 feet AGL
Weather: no significant weather forecast for this period
Text: TEMPO 2006/2012 SHRA BKN010 FEW030CB
Forecast period: 0600 to 1200 UTC 20 September 2017
Forecast type: TEMPORARY: The following changes expected for less than half the time period
Ceiling: 1000 feet AGL
Clouds: broken clouds at 1000 feet AGL
few clouds at 3000 feet AGL
Weather: SHRA  (rain showers)

METAR text: ZSSS 200500Z 03004MPS 7000 -RA OVC040 20/18 Q1012 NOSIG
Conditions at: ZSSS (SHANGHAI/HONGQIA, CN) observed 0500 UTC 20 September 2017
Temperature: 20.0°C (68°F)
Dewpoint: 18.0°C (64°F) [RH = 88%]
Pressure (altimeter): 29.88 inches Hg (1012.0 mb)
Winds: from the NNE (30 degrees) at 9 MPH (8 knots; 4.2 m/s)
Visibility: 4 miles (7 km)
Ceiling: 4000 feet AGL
Clouds: overcast cloud deck at 4000 feet AGL
Weather: -RA  (light rain)

Forecast for: ZSSS (SHANGHAI/HONGQIA, CN)
Text: TAF ZSSS 200311Z 2006/2106 06004MPS 6000 BKN020 TX24/2105Z TN20/2021Z
Forecast period: 0600 UTC 20 September 2017 to 0600 UTC 21 September 2017
Forecast type: FROM: standard forecast or significant change
Winds: from the ENE (60 degrees) at 9 MPH (8 knots; 4.2 m/s)
Visibility: 4 miles (6 km)
Ceiling: 2000 feet AGL
Clouds: broken clouds at 2000 feet AGL
Weather: no significant weather forecast for this period

METAR text: VHHH 200530Z 27005KT 9999 FEW025 SCT030 30/26 Q1009 NOSIG
Conditions at: VHHH (HONG KONG INTL , HK) observed 0530 UTC 20 September 2017
Temperature: 30.0°C (86°F)
Dewpoint: 26.0°C (79°F) [RH = 79%]
Pressure (altimeter): 29.79 inches Hg (1009.0 mb)
Winds: from the W (270 degrees) at 6 MPH (5 knots; 2.6 m/s)
Visibility: 6 or more miles (10+ km)
Ceiling: at least 12,000 feet AGL
Clouds: few clouds at 2500 feet AGL
scattered clouds at 3000 feet AGL
Weather: no significant weather observed at this time

Forecast for: VHHH (HONG KONG INTL , HK)
Text: TAF VHHH 200500Z 2006/2112 28010KT 9999 FEW020 SCT035 TX32/2007Z TX32/2106Z TN28/2022Z
Forecast period: 0600 to 0800 UTC 20 September 2017
Forecast type: FROM: standard forecast or significant change
Winds: from the W (280 degrees) at 12 MPH (10 knots; 5.2 m/s)
Visibility: 6 or more miles (10+ km)
Clouds: few clouds at 2000 feet AGL
scattered clouds at 3500 feet AGL
Weather: no significant weather forecast for this period
Text: BECMG 2008/2010 12010KT
Forecast period: 0800 UTC 20 September 2017 to 1200 UTC 21 September 2017
Forecast type: BECOMING: Conditions expected to become as follows by 1000 UTC 20 September 2017
Winds: from the ESE (120 degrees) at 12 MPH (10 knots; 5.2 m/s)
Visibility: 6 or more miles (10+ km)
Clouds: few clouds at 2000 feet AGL
scattered clouds at 3500 feet AGL
Weather: no significant weather forecast for this period
Text: TEMPO 2018/2103 VRB05KT
Forecast period: 1800 UTC 20 September 2017 to 0300 UTC 21 September 2017
Forecast type: TEMPORARY: The following changes expected for less than half the time period
Winds: variable direction winds at 6 MPH (5 knots; 2.6 m/s)
Weather: no significant weather forecast for this period
Text: TEMPO 2103/2108 28010KT
Forecast period: 0300 to 0800 UTC 21 September 2017
Forecast type: TEMPORARY: The following changes expected for less than half the time period
Winds: from the W (280 degrees) at 12 MPH (10 knots; 5.2 m/s)
Weather: no significant weather forecast for this period